map of BAH home
BAH - Airport
Location
City:  Manama, Bahrain
Near (Alt.):Muharraq
Name:Bahrain International Airport
ICAO:OBBI
IATA:BAH

Details
Type:Airport (Aerodrome, Airfield)
Use:Public/Civil, International (customs port of entry)
Latitude:2616'15"N (26.270833)
Longitude:5038'01"E (50.633611)
Elevation:6 ft (2 m)
Variation:2.76E (WMM2015 magnetic declination)
0.05 annual change
Runways:2
Longest:13005 × 197 ft (3964 × 60 m), paved

Time
Time Zone:UTC+3
Local Time:

Weather
METAR:OBBI 131900Z 26004KT CAVOK 18/15 Q1018 NOSIG
TAF:OBBI 131700Z 1318/1500 VRB05KT CAVOK
BECMG 1412/1414 15010KT= TAF OMAA 131700Z 1318/1500 03007KT 8000 NSC
BECMG 1321/1323 12005KT
BECMG 1402/1404 18010KT
BECMG 1412/1414 34007KT
BECMG 1416/1418 10007KT

Related Locations
Nearby:
Farthest:GMR: 12031 mi / 19363 km
Mangareva [Totegegie], Gambier Islands, PF

Find:

   beyond  
but within

Other Information
Maps:
NOTAMs:
Links:
Sources:

  
flag of Bahrain   

Airport Diagram

Airport diagram for BAH

Larger airport diagram (OBSOLETE) from NGA

Sectional Chart

Flight Planning
at skyvector.com

Satellite Image

Google Maps Satellite view

 

Copyright © 2004-2017 Karl L. Swartz. All rights reserved.
The Great Circle Mapper name and logo are trademarks of the Great Circle Mapper.
All other trademarks mentioned herein belong to their respective owners.
Please see credits for attibutions and further copyright information.

  Follow gcmap on Facebook Follow gcmap on Twitter Follow gcmap on Google+ GCmap on LinkedIn

hCard Microformat

Geo Microformat